sensor_id;sensor_type;location;lat;lon;timestamp;pressure;altitude;pressure_sealevel;temperature;humidity
39823;BME280;25499;53.958;10.970;2023-01-15T07:18:35;99123.75;;;5.19;95.92
39823;BME280;25499;53.958;10.970;2023-01-15T07:21:00;99137.50;;;5.18;95.80
39823;BME280;25499;53.958;10.970;2023-01-15T07:23:26;99134.03;;;5.22;95.57
39823;BME280;25499;53.958;10.970;2023-01-15T07:25:53;99132.34;;;5.18;95.79
39823;BME280;25499;53.958;10.970;2023-01-15T07:28:20;99143.53;;;5.16;95.90
39823;BME280;25499;53.958;10.970;2023-01-15T07:30:46;99138.38;;;5.16;95.77
39823;BME280;25499;53.958;10.970;2023-01-15T07:33:12;99149.56;;;5.16;95.31
39823;BME280;25499;53.958;10.970;2023-01-15T07:35:37;99140.13;;;5.12;95.73
39823;BME280;25499;53.958;10.970;2023-01-15T07:38:03;99133.31;;;5.05;95.69
39823;BME280;25499;53.958;10.970;2023-01-15T07:40:28;99133.31;;;5.05;95.86
39823;BME280;25499;53.958;10.970;2023-01-15T07:42:54;99142.75;;;5.09;96.08
39823;BME280;25499;53.958;10.970;2023-01-15T07:45:38;99142.75;;;5.08;96.12
39823;BME280;25499;53.958;10.970;2023-01-15T07:48:24;99146.19;;;5.07;96.28
39823;BME280;25499;53.958;10.970;2023-01-15T07:51:09;99141.91;;;5.04;96.69
39823;BME280;25499;53.958;10.970;2023-01-15T07:53:34;99149.69;;;5.02;97.20
39823;BME280;25499;53.958;10.970;2023-01-15T07:55:59;99158.25;;;5.03;97.70
39823;BME280;25499;53.958;10.970;2023-01-15T07:58:25;99147.94;;;5.04;97.91
39823;BME280;25499;53.958;10.970;2023-01-15T08:23:34;99144.44;;;5.13;98.24
39823;BME280;25499;53.958;10.970;2023-01-15T08:26:03;99159.91;;;5.13;98.50
39823;BME280;25499;53.958;10.970;2023-01-15T08:28:35;99168.53;;;5.09;98.47
39823;BME280;25499;53.958;10.970;2023-01-15T08:31:00;99165.97;;;5.09;98.30
39823;BME280;25499;53.958;10.970;2023-01-15T08:33:31;99158.19;;;5.12;98.35
39823;BME280;25499;53.958;10.970;2023-01-15T08:36:00;99156.41;;;5.23;98.50
39823;BME280;25499;53.958;10.970;2023-01-15T08:38:44;99155.56;;;5.21;98.24
39823;BME280;25499;53.958;10.970;2023-01-15T08:41:11;99149.50;;;5.21;98.22
39823;BME280;25499;53.958;10.970;2023-01-15T08:43:41;99160.72;;;5.21;97.88
39823;BME280;25499;53.958;10.970;2023-01-15T08:46:22;99143.47;;;5.25;97.47
39823;BME280;25499;53.958;10.970;2023-01-15T08:48:48;99137.41;;;5.31;97.27
39823;BME280;25499;53.958;10.970;2023-01-15T08:51:23;99128.81;;;5.33;97.24
39823;BME280;25499;53.958;10.970;2023-01-15T08:53:54;99134.84;;;5.28;97.10
39823;BME280;25499;53.958;10.970;2023-01-15T08:56:21;99141.75;;;5.24;97.04
39823;BME280;25499;53.958;10.970;2023-01-15T08:59:03;99140.09;;;5.20;97.30
39823;BME280;25499;53.958;10.970;2023-01-15T09:01:30;99133.19;;;5.19;97.39
39823;BME280;25499;53.958;10.970;2023-01-15T09:04:02;99134.06;;;5.19;97.41
39823;BME280;25499;53.958;10.970;2023-01-15T09:06:31;99138.41;;;5.14;97.24
39823;BME280;25499;53.958;10.970;2023-01-15T09:09:03;99139.25;;;5.16;97.35
39823;BME280;25499;53.958;10.970;2023-01-15T09:11:31;99146.97;;;5.18;97.39
39823;BME280;25499;53.958;10.970;2023-01-15T09:27:29;99128.16;;;5.00;96.15
39823;BME280;25499;53.958;10.970;2023-01-15T09:29:55;99128.16;;;5.00;95.91
39823;BME280;25499;53.958;10.970;2023-01-15T09:32:22;99137.56;;;5.11;95.85
39823;BME280;25499;53.958;10.970;2023-01-15T09:34:48;99128.13;;;5.07;95.50
39823;BME280;25499;53.958;10.970;2023-01-15T09:37:15;99122.19;;;4.97;95.50
39823;BME280;25499;53.958;10.970;2023-01-15T09:39:41;99141.88;;;5.09;95.04
39823;BME280;25499;53.958;10.970;2023-01-15T09:45:11;99112.66;;;5.07;94.20
39823;BME280;25499;53.958;10.970;2023-01-15T09:47:54;99111.81;;;5.06;93.68
39823;BME280;25499;53.958;10.970;2023-01-15T09:53:01;99111.00;;;5.02;93.50
39823;BME280;25499;53.958;10.970;2023-01-15T09:55:39;99116.06;;;5.10;93.40
39823;BME280;25499;53.958;10.970;2023-01-15T09:58:09;99115.22;;;5.11;93.25
39823;BME280;25499;53.958;10.970;2023-01-15T10:00:39;99121.09;;;5.27;92.80
39823;BME280;25499;53.958;10.970;2023-01-15T10:03:18;99114.38;;;6.04;91.47
39823;BME280;25499;53.958;10.970;2023-01-15T10:05:48;99102.03;;;7.45;88.20
39823;BME280;25499;53.958;10.970;2023-01-15T10:08:25;99093.75;;;7.25;85.38
39823;BME280;25499;53.958;10.970;2023-01-15T10:10:54;99069.09;;;7.01;83.94
39823;BME280;25499;53.958;10.970;2023-01-15T10:13:49;99087.25;;;7.96;82.80
39823;BME280;25499;53.958;10.970;2023-01-15T10:16:23;99015.47;;;9.15;77.04
39823;BME280;25499;53.958;10.970;2023-01-15T10:18:51;99014.94;;;8.26;76.88
39823;BME280;25499;53.958;10.970;2023-01-15T10:24:16;99048.75;;;7.32;78.93
39823;BME280;25499;53.958;10.970;2023-01-15T10:32:16;99069.66;;;5.97;82.39
39823;BME280;25499;53.958;10.970;2023-01-15T10:37:55;99074.09;;;5.84;83.43
39823;BME280;25499;53.958;10.970;2023-01-15T10:45:52;99066.22;;;5.93;83.52
39823;BME280;25499;53.958;10.970;2023-01-15T10:48:37;99059.91;;;6.19;83.16
39823;BME280;25499;53.958;10.970;2023-01-15T10:54:22;99032.44;;;6.76;80.34
39823;BME280;25499;53.958;10.970;2023-01-15T10:57:00;99008.31;;;6.72;78.53
39823;BME280;25499;53.958;10.970;2023-01-15T10:59:54;98991.56;;;6.43;77.48
39823;BME280;25499;53.958;10.970;2023-01-15T11:03:04;98983.06;;;6.35;77.98
39823;BME280;25499;53.958;10.970;2023-01-15T11:05:39;98966.25;;;6.64;75.46
39823;BME280;25499;53.958;10.970;2023-01-15T11:08:16;98951.06;;;6.95;74.83
39823;BME280;25499;53.958;10.970;2023-01-15T11:10:47;98948.09;;;7.17;73.30
39823;BME280;25499;53.958;10.970;2023-01-15T11:13:25;98946.81;;;7.38;72.94
39823;BME280;25499;53.958;10.970;2023-01-15T11:16:23;98935.94;;;7.64;72.36
39823;BME280;25499;53.958;10.970;2023-01-15T11:19:09;98917.38;;;7.84;69.55
39823;BME280;25499;53.958;10.970;2023-01-15T11:22:14;98883.50;;;7.93;68.35
39823;BME280;25499;53.958;10.970;2023-01-15T11:25:04;98868.69;;;7.17;67.66
39823;BME280;25499;53.958;10.970;2023-01-15T11:27:32;98880.16;;;7.47;67.95
39823;BME280;25499;53.958;10.970;2023-01-15T11:30:05;98893.16;;;7.87;67.01
39823;BME280;25499;53.958;10.970;2023-01-15T11:32:37;98869.09;;;8.17;65.97
39823;BME280;25499;53.958;10.970;2023-01-15T11:35:16;98884.16;;;8.03;66.01
39823;BME280;25499;53.958;10.970;2023-01-15T11:37:44;98899.72;;;8.39;65.85
39823;BME280;25499;53.958;10.970;2023-01-15T11:40:19;98883.78;;;7.81;64.99
39823;BME280;25499;53.958;10.970;2023-01-15T11:42:50;98902.59;;;7.49;66.52
39823;BME280;25499;53.958;10.970;2023-01-15T11:45:49;98914.47;;;7.15;67.64
39823;BME280;25499;53.958;10.970;2023-01-15T11:48:44;98895.97;;;6.90;67.38
39823;BME280;25499;53.958;10.970;2023-01-15T11:51:30;98892.31;;;6.52;67.61
39823;BME280;25499;53.958;10.970;2023-01-15T11:54:01;98898.56;;;6.40;68.77
39823;BME280;25499;53.958;10.970;2023-01-15T11:56:34;98908.16;;;6.32;69.51
39823;BME280;25499;53.958;10.970;2023-01-15T11:59:39;98930.25;;;6.50;69.79
39823;BME280;25499;53.958;10.970;2023-01-15T12:02:36;98897.03;;;6.28;69.89
39823;BME280;25499;53.958;10.970;2023-01-15T12:05:21;98893.50;;;6.32;69.91
39823;BME280;25499;53.958;10.970;2023-01-15T12:07:51;98891.97;;;6.19;69.93
39823;BME280;25499;53.958;10.970;2023-01-15T12:10:35;98930.56;;;7.29;69.99
39823;BME280;25499;53.958;10.970;2023-01-15T12:16:29;98875.28;;;7.34;67.18
39823;BME280;25499;53.958;10.970;2023-01-15T12:19:08;98893.91;;;7.06;67.41
39823;BME280;25499;53.958;10.970;2023-01-15T12:28:02;98865.84;;;8.09;66.53
39823;BME280;25499;53.958;10.970;2023-01-15T12:33:27;98880.47;;;8.49;65.53
39823;BME280;25499;53.958;10.970;2023-01-15T12:36:02;98815.75;;;8.09;64.06
39823;BME280;25499;53.958;10.970;2023-01-15T12:38:41;98813.50;;;7.57;64.67
39823;BME280;25499;53.958;10.970;2023-01-15T12:41:42;98841.91;;;7.21;66.41
39823;BME280;25499;53.958;10.970;2023-01-15T12:50:48;98837.28;;;8.47;64.34
39823;BME280;25499;53.958;10.970;2023-01-15T12:58:50;98857.31;;;8.40;66.10
39823;BME280;25499;53.958;10.970;2023-01-15T13:04:23;98818.00;;;8.22;65.42
39823;BME280;25499;53.958;10.970;2023-01-15T13:07:15;98818.06;;;8.55;65.05
39823;BME280;25499;53.958;10.970;2023-01-15T13:10:03;98771.25;;;7.93;65.48
39823;BME280;25499;53.958;10.970;2023-01-15T13:12:34;98802.00;;;7.32;66.53
39823;BME280;25499;53.958;10.970;2023-01-15T13:15:01;98809.88;;;6.83;67.78
39823;BME280;25499;53.958;10.970;2023-01-15T13:20:52;98864.41;;;6.21;71.19
39823;BME280;25499;53.958;10.970;2023-01-15T13:34:24;98925.63;;;5.48;76.39
39823;BME280;25499;53.958;10.970;2023-01-15T13:36:53;98932.69;;;5.35;77.38
39823;BME280;25499;53.958;10.970;2023-01-15T13:39:26;98933.56;;;5.32;78.76
39823;BME280;25499;53.958;10.970;2023-01-15T13:41:56;98928.56;;;5.18;79.52
39823;BME280;25499;53.958;10.970;2023-01-15T13:44:47;98926.03;;;5.12;80.47
39823;BME280;25499;53.958;10.970;2023-01-15T13:47:25;98915.84;;;5.03;81.23
39823;BME280;25499;53.958;10.970;2023-01-15T13:50:05;98913.28;;;4.98;82.01
39823;BME280;25499;53.958;10.970;2023-01-15T13:52:37;98917.59;;;5.01;82.60
39823;BME280;25499;53.958;10.970;2023-01-15T13:57:43;98916.78;;;4.96;83.28
39823;BME280;25499;53.958;10.970;2023-01-15T14:03:00;98903.81;;;5.00;83.57
39823;BME280;25499;53.958;10.970;2023-01-15T14:05:31;98920.94;;;5.08;83.79
39823;BME280;25499;53.958;10.970;2023-01-15T14:07:59;98907.13;;;5.12;83.42
39823;BME280;25499;53.958;10.970;2023-01-15T14:27:02;98884.66;;;5.25;82.49
39823;BME280;25499;53.958;10.970;2023-01-15T14:32:42;98885.38;;;5.33;82.15
39823;BME280;25499;53.958;10.970;2023-01-15T14:35:14;98897.38;;;5.38;81.83
39823;BME280;25499;53.958;10.970;2023-01-15T14:37:50;98861.16;;;5.45;81.18
39823;BME280;25499;53.958;10.970;2023-01-15T14:40:23;98875.78;;;5.44;81.03
39823;BME280;25499;53.958;10.970;2023-01-15T14:42:54;98863.66;;;5.51;80.72
39823;BME280;25499;53.958;10.970;2023-01-15T14:45:55;98857.66;;;5.50;80.30
39823;BME280;25499;53.958;10.970;2023-01-15T14:50:54;98842.06;;;5.58;79.44
39823;BME280;25499;53.958;10.970;2023-01-15T14:53:37;98843.75;;;5.62;79.12
39823;BME280;25499;53.958;10.970;2023-01-15T14:56:12;98837.69;;;5.63;79.21
39823;BME280;25499;53.958;10.970;2023-01-15T14:58:47;98836.88;;;5.59;79.11
39823;BME280;25499;53.958;10.970;2023-01-15T15:01:23;98842.03;;;5.59;79.58
39823;BME280;25499;53.958;10.970;2023-01-15T15:03:56;98836.88;;;5.58;79.18
39823;BME280;25499;53.958;10.970;2023-01-15T15:06:25;98834.31;;;5.58;79.10
39823;BME280;25499;53.958;10.970;2023-01-15T15:08:59;98841.97;;;5.64;78.90
39823;BME280;25499;53.958;10.970;2023-01-15T15:11:37;98842.00;;;5.63;78.84
39823;BME280;25499;53.958;10.970;2023-01-15T15:14:24;98842.81;;;5.65;79.23
39823;BME280;25499;53.958;10.970;2023-01-15T15:16:52;98852.34;;;5.61;79.19
39823;BME280;25499;53.958;10.970;2023-01-15T15:19:41;98850.56;;;5.65;78.84
39823;BME280;25499;53.958;10.970;2023-01-15T15:22:13;98862.59;;;5.67;79.43
39823;BME280;25499;53.958;10.970;2023-01-15T15:24:49;98871.28;;;5.60;80.10
39823;BME280;25499;53.958;10.970;2023-01-15T15:27:21;98891.13;;;5.56;80.53
39823;BME280;25499;53.958;10.970;2023-01-15T15:29:47;98902.34;;;5.54;81.05
39823;BME280;25499;53.958;10.970;2023-01-15T15:32:21;98896.34;;;5.53;81.49
39823;BME280;25499;53.958;10.970;2023-01-15T15:34:50;98910.13;;;5.51;82.03
39823;BME280;25499;53.958;10.970;2023-01-15T15:37:22;98913.63;;;5.48;82.64
39823;BME280;25499;53.958;10.970;2023-01-15T15:42:24;98922.31;;;5.38;83.93
39823;BME280;25499;53.958;10.970;2023-01-15T15:45:17;98958.53;;;5.32;85.32
39823;BME280;25499;53.958;10.970;2023-01-15T15:50:59;98986.16;;;5.20;87.80
39823;BME280;25499;53.958;10.970;2023-01-15T15:53:27;98990.47;;;5.20;88.58
39823;BME280;25499;53.958;10.970;2023-01-15T15:55:53;98994.00;;;5.10;89.19
39823;BME280;25499;53.958;10.970;2023-01-15T15:58:25;98994.88;;;5.05;90.06
39823;BME280;25499;53.958;10.970;2023-01-15T16:00:52;98976.91;;;4.98;90.78
39823;BME280;25499;53.958;10.970;2023-01-15T16:03:22;98991.53;;;4.97;90.89
39823;BME280;25499;53.958;10.970;2023-01-15T16:06:23;99002.75;;;4.90;92.11
39823;BME280;25499;53.958;10.970;2023-01-15T16:08:57;99013.16;;;4.84;92.85
39823;BME280;25499;53.958;10.970;2023-01-15T16:11:26;99005.44;;;4.79;93.46
39823;BME280;25499;53.958;10.970;2023-01-15T16:13:57;99015.78;;;4.76;93.99
39823;BME280;25499;53.958;10.970;2023-01-15T16:16:25;99001.13;;;4.78;94.66
39823;BME280;25499;53.958;10.970;2023-01-15T16:18:54;99001.22;;;4.67;94.87
39823;BME280;25499;53.958;10.970;2023-01-15T16:21:29;99012.41;;;4.65;95.53
39823;BME280;25499;53.958;10.970;2023-01-15T16:24:05;99007.28;;;4.63;95.87
39823;BME280;25499;53.958;10.970;2023-01-15T16:29:02;99015.03;;;4.63;95.79
39823;BME280;25499;53.958;10.970;2023-01-15T16:31:36;99024.44;;;4.66;95.95
39823;BME280;25499;53.958;10.970;2023-01-15T16:34:24;99034.72;;;4.69;96.07
39823;BME280;25499;53.958;10.970;2023-01-15T16:36:50;99044.13;;;4.75;96.16
39823;BME280;25499;53.958;10.970;2023-01-15T16:39:29;99043.28;;;4.77;96.00
39823;BME280;25499;53.958;10.970;2023-01-15T16:41:57;99036.41;;;4.73;96.30
39823;BME280;25499;53.958;10.970;2023-01-15T16:44:51;99042.44;;;4.72;96.73
39823;BME280;25499;53.958;10.970;2023-01-15T16:47:27;99051.91;;;4.70;97.03
39823;BME280;25499;53.958;10.970;2023-01-15T16:52:49;99050.28;;;4.58;98.30
39823;BME280;25499;53.958;10.970;2023-01-15T17:00:38;99056.31;;;4.53;99.33
39823;BME280;25499;53.958;10.970;2023-01-15T17:03:18;99067.50;;;4.53;99.50
39823;BME280;25499;53.958;10.970;2023-01-15T17:05:50;99054.56;;;4.55;99.75
39823;BME280;25499;53.958;10.970;2023-01-15T17:08:22;99065.75;;;4.54;99.88
39823;BME280;25499;53.958;10.970;2023-01-15T17:10:59;99087.22;;;4.54;100.00
39823;BME280;25499;53.958;10.970;2023-01-15T17:13:35;99076.91;;;4.53;100.00
39823;BME280;25499;53.958;10.970;2023-01-15T17:16:27;99083.81;;;4.49;100.00
39823;BME280;25499;53.958;10.970;2023-01-15T17:18:53;99087.25;;;4.48;100.00
39823;BME280;25499;53.958;10.970;2023-01-15T17:21:21;99088.13;;;4.48;100.00
39823;BME280;25499;53.958;10.970;2023-01-15T17:23:54;99101.84;;;4.52;100.00
39823;BME280;25499;53.958;10.970;2023-01-15T17:26:23;99082.91;;;4.56;100.00
39823;BME280;25499;53.958;10.970;2023-01-15T17:28:50;99103.53;;;4.58;100.00
39823;BME280;25499;53.958;10.970;2023-01-15T17:31:28;99112.97;;;4.59;100.00
39823;BME280;25499;53.958;10.970;2023-01-15T17:33:56;99092.34;;;4.62;100.00
39823;BME280;25499;53.958;10.970;2023-01-15T17:36:22;99099.22;;;4.60;100.00
39823;BME280;25499;53.958;10.970;2023-01-15T17:38:48;99104.34;;;4.63;100.00
39823;BME280;25499;53.958;10.970;2023-01-15T17:41:15;99084.56;;;4.68;100.00
39823;BME280;25499;53.958;10.970;2023-01-15T17:43:41;99115.50;;;4.65;100.00
39823;BME280;25499;53.958;10.970;2023-01-15T17:46:07;99111.25;;;4.59;100.00
39823;BME280;25499;53.958;10.970;2023-01-15T17:48:32;99116.41;;;4.59;100.00
39823;BME280;25499;53.958;10.970;2023-01-15T17:50:59;99113.84;;;4.55;100.00
39823;BME280;25499;53.958;10.970;2023-01-15T17:53:26;99102.72;;;4.49;100.00
39823;BME280;25499;53.958;10.970;2023-01-15T17:55:52;99117.31;;;4.47;100.00
39823;BME280;25499;53.958;10.970;2023-01-15T17:58:36;99119.88;;;4.52;100.00
39823;BME280;25499;53.958;10.970;2023-01-15T18:01:21;99128.47;;;4.53;100.00
39823;BME280;25499;53.958;10.970;2023-01-15T18:04:29;99110.44;;;4.51;100.00
39823;BME280;25499;53.958;10.970;2023-01-15T18:07:31;99127.63;;;4.54;100.00
39823;BME280;25499;53.958;10.970;2023-01-15T18:10:01;99117.31;;;4.47;100.00
39823;BME280;25499;53.958;10.970;2023-01-15T18:12:26;99146.56;;;4.37;100.00
39823;BME280;25499;53.958;10.970;2023-01-15T18:14:52;99144.00;;;4.40;100.00
39823;BME280;25499;53.958;10.970;2023-01-15T18:17:17;99156.88;;;4.39;100.00
39823;BME280;25499;53.958;10.970;2023-01-15T18:19:43;99175.78;;;4.33;100.00
39823;BME280;25499;53.958;10.970;2023-01-15T18:22:08;99167.19;;;4.31;100.00
39823;BME280;25499;53.958;10.970;2023-01-15T18:24:34;99179.22;;;4.26;100.00
39823;BME280;25499;53.958;10.970;2023-01-15T18:27:00;99152.63;;;4.27;100.00
39823;BME280;25499;53.958;10.970;2023-01-15T18:29:25;99188.69;;;4.27;100.00
39823;BME280;25499;53.958;10.970;2023-01-15T18:31:51;99197.25;;;4.26;100.00
39823;BME280;25499;53.958;10.970;2023-01-15T18:34:16;99187.00;;;4.21;100.00
39823;BME280;25499;53.958;10.970;2023-01-15T18:36:42;99195.59;;;4.13;100.00
39823;BME280;25499;53.958;10.970;2023-01-15T18:39:07;99196.47;;;4.08;100.00
39823;BME280;25499;53.958;10.970;2023-01-15T18:41:39;99202.44;;;4.09;100.00
39823;BME280;25499;53.958;10.970;2023-01-15T18:44:09;99211.91;;;4.08;100.00
39823;BME280;25499;53.958;10.970;2023-01-15T18:46:57;99223.06;;;4.09;100.00
39823;BME280;25499;53.958;10.970;2023-01-15T18:49:23;99226.50;;;4.14;100.00
39823;BME280;25499;53.958;10.970;2023-01-15T18:51:49;99221.31;;;4.20;100.00
39823;BME280;25499;53.958;10.970;2023-01-15T18:54:50;99247.09;;;4.22;100.00
39823;BME280;25499;53.958;10.970;2023-01-15T18:57:16;99236.81;;;4.13;100.00
39823;BME280;25499;53.958;10.970;2023-01-15T18:59:42;99214.47;;;4.05;100.00
39823;BME280;25499;53.958;10.970;2023-01-15T19:02:08;99242.81;;;3.90;100.00
39823;BME280;25499;53.958;10.970;2023-01-15T19:04:34;99257.41;;;3.82;100.00
39823;BME280;25499;53.958;10.970;2023-01-15T19:07:00;99235.13;;;3.78;100.00
39823;BME280;25499;53.958;10.970;2023-01-15T19:09:28;99237.69;;;3.64;100.00
39823;BME280;25499;53.958;10.970;2023-01-15T19:11:54;99235.09;;;3.53;100.00
39823;BME280;25499;53.958;10.970;2023-01-15T19:14:19;99254.84;;;3.55;100.00
39823;BME280;25499;53.958;10.970;2023-01-15T19:17:03;99259.13;;;3.50;100.00
39823;BME280;25499;53.958;10.970;2023-01-15T19:19:47;99243.69;;;3.52;100.00
39823;BME280;25499;53.958;10.970;2023-01-15T19:22:13;99257.41;;;3.48;100.00
39823;BME280;25499;53.958;10.970;2023-01-15T19:24:56;99275.41;;;3.48;100.00
39823;BME280;25499;53.958;10.970;2023-01-15T19:27:22;99284.84;;;3.47;100.00
39823;BME280;25499;53.958;10.970;2023-01-15T19:29:48;99295.16;;;3.57;100.00
39823;BME280;25499;53.958;10.970;2023-01-15T19:32:14;99295.16;;;3.58;100.00
39823;BME280;25499;53.958;10.970;2023-01-15T19:34:39;99310.59;;;3.60;100.00
39823;BME280;25499;53.958;10.970;2023-01-15T19:37:05;99322.56;;;3.53;100.00
39823;BME280;25499;53.958;10.970;2023-01-15T19:39:30;99335.47;;;3.59;100.00
39823;BME280;25499;53.958;10.970;2023-01-15T19:41:57;99353.50;;;3.62;100.00
39823;BME280;25499;53.958;10.970;2023-01-15T19:44:41;99349.19;;;3.61;100.00
39823;BME280;25499;53.958;10.970;2023-01-15T19:47:29;99338.06;;;3.62;100.00
39823;BME280;25499;53.958;10.970;2023-01-15T19:50:16;99344.03;;;3.61;100.00
39823;BME280;25499;53.958;10.970;2023-01-15T19:52:50;99343.19;;;3.61;100.00
39823;BME280;25499;53.958;10.970;2023-01-15T19:55:17;99346.63;;;3.64;100.00
39823;BME280;25499;53.958;10.970;2023-01-15T19:57:45;99342.34;;;3.63;100.00
39823;BME280;25499;53.958;10.970;2023-01-15T20:00:13;99347.50;;;3.76;100.00
39823;BME280;25499;53.958;10.970;2023-01-15T20:02:40;99344.94;;;3.77;100.00
39823;BME280;25499;53.958;10.970;2023-01-15T20:05:07;99363.81;;;3.68;100.00
39823;BME280;25499;53.958;10.970;2023-01-15T20:07:33;99383.50;;;3.68;100.00
39823;BME280;25499;53.958;10.970;2023-01-15T20:09:58;99388.69;;;3.71;100.00
39823;BME280;25499;53.958;10.970;2023-01-15T20:12:24;99365.50;;;3.66;100.00
39823;BME280;25499;53.958;10.970;2023-01-15T20:15:08;99379.22;;;3.59;100.00
39823;BME280;25499;53.958;10.970;2023-01-15T20:17:33;99373.22;;;3.59;100.00
39823;BME280;25499;53.958;10.970;2023-01-15T20:19:59;99370.63;;;3.65;100.00
39823;BME280;25499;53.958;10.970;2023-01-15T20:22:24;99364.63;;;3.55;100.00
39823;BME280;25499;53.958;10.970;2023-01-15T20:24:51;99359.50;;;3.70;100.00
39823;BME280;25499;53.958;10.970;2023-01-15T20:27:16;99350.91;;;3.56;100.00
39823;BME280;25499;53.958;10.970;2023-01-15T20:29:47;99367.22;;;3.67;100.00
39823;BME280;25499;53.958;10.970;2023-01-15T20:32:37;99368.06;;;3.57;100.00
39823;BME280;25499;53.958;10.970;2023-01-15T20:35:05;99364.66;;;3.58;100.00
39823;BME280;25499;53.958;10.970;2023-01-15T20:37:31;99362.94;;;3.60;100.00
39823;BME280;25499;53.958;10.970;2023-01-15T20:39:57;99347.47;;;3.59;100.00
39823;BME280;25499;53.958;10.970;2023-01-15T20:42:22;99355.19;;;3.59;100.00
39823;BME280;25499;53.958;10.970;2023-01-15T20:45:07;99353.47;;;3.56;100.00
39823;BME280;25499;53.958;10.970;2023-01-15T20:47:36;99357.81;;;3.72;100.00
39823;BME280;25499;53.958;10.970;2023-01-15T20:50:22;99353.50;;;3.70;100.00
39823;BME280;25499;53.958;10.970;2023-01-15T20:52:50;99356.06;;;3.71;100.00
39823;BME280;25499;53.958;10.970;2023-01-15T20:55:17;99363.81;;;3.67;100.00
39823;BME280;25499;53.958;10.970;2023-01-15T20:57:43;99359.53;;;3.72;100.00
39823;BME280;25499;53.958;10.970;2023-01-15T21:00:19;99367.25;;;3.72;100.00
39823;BME280;25499;53.958;10.970;2023-01-15T21:02:45;99373.25;;;3.77;100.00
39823;BME280;25499;53.958;10.970;2023-01-15T21:05:11;99373.25;;;3.82;100.00
39823;BME280;25499;53.958;10.970;2023-01-15T21:07:37;99368.09;;;3.85;100.00
